Time;durP1;ratioP1;P1;durP2;ratioP2;P2;SDS_P1;SDS_P2;PMS_P1;PMS_P2;Temp;Humidity;BMP_temperature;BMP_pressure;BME280_temperature;BME280_humidity;BME280_pressure;Samples;Min_cycle;Max_cycle;Signal;HPM_P1;HPM_P2
2021/12/30 00:00:11;;;;;;;34.50;25.83;;;;;;;5.77;86.42;98299.25;4946874;28;20019;-62
2021/12/30 00:02:37;;;;;;;33.75;25.65;;;;;;;5.82;85.76;98296.28;4918244;28;21077;-62
2021/12/30 00:05:03;;;;;;;34.15;25.70;;;;;;;5.51;86.36;98262.63;4936598;28;20074;-61
2021/12/30 00:07:29;;;;;;;35.00;26.23;;;;;;;5.83;84.97;98303.13;4964602;28;20455;-61
2021/12/30 00:09:55;;;;;;;34.50;26.13;;;;;;;5.38;86.23;98280.00;4971161;28;20101;-61
2021/12/30 00:12:20;;;;;;;32.30;24.67;;;;;;;5.68;86.12;98327.56;4972340;28;20106;-61
2021/12/30 00:14:46;;;;;;;35.83;25.90;;;;;;;5.43;87.40;98344.94;4968098;28;20027;-62
2021/12/30 00:17:11;;;;;;;36.45;24.98;;;;;;;5.12;87.88;98294.91;4957787;28;20039;-62
2021/12/30 00:19:37;;;;;;;33.38;25.63;;;;;;;5.39;87.89;98344.34;4950901;28;20086;-62
2021/12/30 00:22:03;;;;;;;32.10;25.02;;;;;;;5.56;88.09;98350.75;4960983;28;20042;-62
2021/12/30 00:24:29;;;;;;;35.80;26.10;;;;;;;5.63;87.25;98358.03;4954684;28;20030;-61
2021/12/30 00:26:54;;;;;;;35.63;24.73;;;;;;;5.61;86.29;98368.47;4970436;28;20497;-62
2021/12/30 00:29:20;;;;;;;34.33;25.63;;;;;;;5.55;86.35;98361.22;4972078;28;20053;-61
2021/12/30 00:31:46;;;;;;;33.60;24.95;;;;;;;5.50;86.15;98366.72;4957970;28;20038;-62
2021/12/30 00:34:12;;;;;;;33.85;24.77;;;;;;;5.39;87.33;98361.59;4953157;28;20261;-62
2021/12/30 00:36:37;;;;;;;35.00;24.65;;;;;;;5.31;88.10;98353.59;4943870;28;20034;-62
2021/12/30 00:39:03;;;;;;;34.83;25.50;;;;;;;5.36;87.28;98352.31;4954245;28;20465;-62
2021/12/30 00:41:28;;;;;;;34.10;25.52;;;;;;;4.99;88.03;98362.03;4975457;28;20031;-61
2021/12/30 00:43:54;;;;;;;36.05;25.25;;;;;;;4.99;88.96;98357.69;4955102;28;20042;-61
2021/12/30 00:46:19;;;;;;;32.65;24.55;;;;;;;5.17;89.17;98355.47;4955240;28;20027;-62
2021/12/30 00:48:45;;;;;;;33.17;24.17;;;;;;;5.12;89.83;98364.50;4935219;28;20081;-62
2021/12/30 00:51:10;;;;;;;33.58;24.77;;;;;;;5.25;89.97;98357.47;4905250;28;20065;-62
2021/12/30 00:53:36;;;;;;;33.50;25.27;;;;;;;5.17;90.22;98349.50;4969899;28;20591;-63
2021/12/30 00:56:01;;;;;;;33.70;24.90;;;;;;;5.26;90.08;98348.81;4958083;28;20394;-62
2021/12/30 00:58:27;;;;;;;35.15;25.27;;;;;;;5.43;89.92;98362.97;4950134;28;20405;-61
2021/12/30 01:00:54;;;;;;;33.25;24.73;;;;;;;5.29;88.97;98327.94;4958448;28;20657;-62
2021/12/30 01:03:20;;;;;;;32.92;24.75;;;;;;;5.12;88.86;98331.81;4958792;28;20031;-62
2021/12/30 01:05:46;;;;;;;33.35;25.55;;;;;;;4.82;89.47;98298.91;4887365;28;20038;-62
2021/12/30 01:08:13;;;;;;;35.28;25.23;;;;;;;5.21;89.82;98358.66;4975108;28;20054;-61
2021/12/30 01:10:39;;;;;;;33.53;25.05;;;;;;;4.90;88.37;98324.06;4953681;28;20035;-62
2021/12/30 01:13:07;;;;;;;37.90;26.15;;;;;;;5.25;88.16;98357.47;4953703;28;20023;-62
2021/12/30 01:15:45;;;;;;;31.15;22.70;;;;;;;5.27;88.16;98353.00;4963351;28;20039;-61
2021/12/30 01:20:50;;;;;;;31.15;22.90;;;;;;;5.27;86.78;98349.63;4899973;28;20772;-61
2021/12/30 01:23:15;;;;;;;32.28;22.50;;;;;;;5.21;87.81;98345.75;4971874;28;20031;-62
2021/12/30 01:25:41;;;;;;;31.77;24.00;;;;;;;4.95;88.52;98355.47;4959683;28;20090;-61
2021/12/30 01:28:06;;;;;;;33.85;24.23;;;;;;;4.74;89.38;98340.66;4960184;28;20237;-62
2021/12/30 01:30:32;;;;;;;33.40;24.88;;;;;;;5.05;87.55;98361.56;4966055;28;20703;-62
2021/12/30 01:32:57;;;;;;;32.95;23.80;;;;;;;5.13;86.89;98346.34;4961750;28;20478;-62
2021/12/30 01:35:25;;;;;;;30.42;22.73;;;;;;;5.09;86.97;98360.41;4961090;28;20046;-61
2021/12/30 01:37:54;;;;;;;32.63;23.20;;;;;;;5.09;86.45;98367.31;4937389;28;20104;-62
2021/12/30 01:40:20;;;;;;;36.90;26.52;;;;;;;5.04;86.49;98370.25;4958493;28;20379;-62
2021/12/30 01:42:46;;;;;;;35.33;24.20;;;;;;;4.89;86.69;98376.53;4971644;28;20057;-62
2021/12/30 01:45:12;;;;;;;30.85;22.88;;;;;;;5.07;86.04;98403.50;4961833;28;20631;-62
2021/12/30 01:47:42;;;;;;;29.70;22.05;;;;;;;4.84;86.85;98400.06;4959339;28;20034;-62
2021/12/30 01:50:09;;;;;;;30.33;22.83;;;;;;;4.71;86.48;98361.53;4954590;28;20030;-62
2021/12/30 01:52:34;;;;;;;32.55;22.85;;;;;;;4.87;86.92;98399.81;4926993;28;20114;-62
2021/12/30 01:55:00;;;;;;;30.58;22.40;;;;;;;4.65;88.27;98410.06;4959886;28;20387;-61
2021/12/30 01:57:25;;;;;;;31.92;22.55;;;;;;;4.41;88.18;98326.78;4954733;28;20052;-61
2021/12/30 01:59:51;;;;;;;29.83;21.38;;;;;;;4.71;87.48;98387.28;4957930;28;20023;-62
2021/12/30 02:02:16;;;;;;;28.27;20.83;;;;;;;4.72;88.19;98373.44;4955251;28;20133;-61
2021/12/30 02:04:41;;;;;;;28.48;21.23;;;;;;;4.71;87.93;98395.00;4948719;28;20524;-61
2021/12/30 02:07:08;;;;;;;33.13;22.73;;;;;;;4.86;87.90;98413.66;4954351;28;20394;-62
2021/12/30 02:09:34;;;;;;;36.05;25.88;;;;;;;4.76;86.64;98418.69;4900975;28;20069;-62
2021/12/30 02:12:00;;;;;;;40.55;27.17;;;;;;;4.20;87.32;98347.19;4960047;28;20027;-60
2021/12/30 02:14:26;;;;;;;33.65;23.48;;;;;;;4.83;87.09;98419.03;4954543;28;20439;-62
2021/12/30 02:16:52;;;;;;;27.25;20.25;;;;;;;4.83;86.54;98408.72;4943226;28;20078;-58
2021/12/30 02:19:18;;;;;;;29.85;21.55;;;;;;;4.96;86.12;98422.34;4963159;28;20030;-61
2021/12/30 02:21:43;;;;;;;27.83;20.73;;;;;;;4.33;87.04;98388.31;4969012;28;20041;-62
2021/12/30 02:24:09;;;;;;;28.23;20.90;;;;;;;4.53;87.46;98401.50;4937875;28;20023;-62
2021/12/30 02:26:35;;;;;;;29.60;19.85;;;;;;;4.52;88.54;98415.31;4954213;28;20418;-61
2021/12/30 02:29:00;;;;;;;27.05;19.17;;;;;;;4.74;86.94;98419.72;4956962;28;20070;-61
2021/12/30 02:31:28;;;;;;;28.60;20.38;;;;;;;4.66;86.42;98396.28;4949368;28;20067;-61
2021/12/30 02:33:57;;;;;;;31.85;21.00;;;;;;;4.68;86.16;98407.28;4952018;28;20030;-61
2021/12/30 02:36:27;;;;;;;29.38;20.58;;;;;;;4.70;85.96;98423.44;4962420;28;20027;-61
2021/12/30 02:38:53;;;;;;;26.45;19.38;;;;;;;4.30;87.26;98416.84;4937360;28;20680;-62
2021/12/30 02:41:19;;;;;;;26.48;19.75;;;;;;;4.31;88.42;98412.50;4916752;28;20042;-61
2021/12/30 02:43:47;;;;;;;25.85;19.10;;;;;;;4.45;88.05;98414.09;4974902;28;20128;-61
2021/12/30 02:46:14;;;;;;;29.55;20.67;;;;;;;4.50;87.20;98412.84;4941043;28;20533;-61
2021/12/30 02:48:41;;;;;;;28.00;20.10;;;;;;;4.41;87.20;98416.06;4959874;28;20041;-61
2021/12/30 02:51:09;;;;;;;27.88;20.15;;;;;;;4.55;87.13;98409.94;4955240;28;20031;-61
2021/12/30 02:53:35;;;;;;;25.67;19.10;;;;;;;4.56;86.27;98406.41;4971436;28;20114;-61
2021/12/30 02:56:01;;;;;;;27.42;18.75;;;;;;;4.62;85.21;98400.84;4928888;28;20039;-62
2021/12/30 02:58:27;;;;;;;26.45;19.20;;;;;;;4.21;86.47;98366.84;4976664;28;20066;-61
2021/12/30 03:01:12;;;;;;;28.02;18.70;;;;;;;4.23;86.36;98403.59;4948441;28;20072;-62
2021/12/30 03:03:38;;;;;;;28.83;20.10;;;;;;;4.46;85.99;98436.34;4960259;28;20114;-62
2021/12/30 03:06:05;;;;;;;28.45;20.17;;;;;;;4.51;85.86;98453.13;4957038;28;20467;-62
2021/12/30 03:08:31;;;;;;;25.88;18.45;;;;;;;4.07;85.27;98408.19;4972684;28;20114;-61
2021/12/30 03:10:57;;;;;;;24.63;17.67;;;;;;;4.23;86.45;98433.66;4944500;28;20529;-62
2021/12/30 03:13:30;;;;;;;25.75;18.80;;;;;;;4.51;85.43;98460.00;4952396;28;20030;-62
2021/12/30 03:16:02;;;;;;;24.35;17.98;;;;;;;4.44;85.19;98462.19;4956282;28;20454;-61
2021/12/30 03:18:28;;;;;;;23.45;17.88;;;;;;;4.39;86.08;98464.28;4957157;28;20031;-61
2021/12/30 03:20:53;;;;;;;25.20;17.48;;;;;;;4.50;84.66;98453.22;4964197;28;20132;-62
2021/12/30 03:23:19;;;;;;;23.38;16.75;;;;;;;4.05;86.24;98451.19;4960602;28;20043;-61
2021/12/30 03:25:44;;;;;;;24.40;17.38;;;;;;;3.97;87.02;98458.66;4960166;28;20046;-62
2021/12/30 03:28:09;;;;;;;25.38;17.98;;;;;;;4.03;86.84;98448.75;4956641;28;20027;-62
2021/12/30 03:30:35;;;;;;;25.70;18.35;;;;;;;3.93;87.95;98457.22;4956569;28;20027;-61
2021/12/30 03:33:01;;;;;;;26.58;17.45;;;;;;;3.98;88.07;98450.81;4946460;28;20033;-62
2021/12/30 03:35:26;;;;;;;25.17;18.40;;;;;;;3.68;89.39;98437.50;4950968;28;20113;-61
2021/12/30 03:37:52;;;;;;;27.15;18.15;;;;;;;3.81;89.56;98448.59;4941162;28;20026;-62
2021/12/30 03:40:18;;;;;;;28.08;18.15;;;;;;;3.84;90.00;98456.91;4954614;28;20069;-61
2021/12/30 03:42:44;;;;;;;24.63;17.35;;;;;;;4.10;88.57;98468.91;4939287;28;20034;-61
2021/12/30 03:45:11;;;;;;;25.65;18.02;;;;;;;4.20;87.90;98467.34;4936387;28;20065;-62
2021/12/30 03:47:41;;;;;;;27.77;19.85;;;;;;;4.03;87.44;98489.09;4967474;28;21208;-62
2021/12/30 03:50:08;;;;;;;;;;;;;;;3.91;88.46;98475.34;4965814;28;20033;-62
2021/12/30 03:52:33;;;;;;;24.50;17.73;;;;;;;3.93;89.06;98457.22;4944193;28;20000;-61
2021/12/30 03:54:59;;;;;;;25.10;18.10;;;;;;;3.78;88.30;98435.97;4954246;28;20027;-62
2021/12/30 03:57:24;;;;;;;26.63;18.88;;;;;;;3.79;87.89;98445.31;4949477;28;20129;-62
2021/12/30 03:59:50;;;;;;;25.10;17.90;;;;;;;3.99;87.60;98474.78;4957439;28;20042;-61
2021/12/30 04:02:15;;;;;;;24.52;17.30;;;;;;;3.88;87.22;98477.28;4956883;28;20050;-61
2021/12/30 04:04:41;;;;;;;25.90;18.30;;;;;;;3.77;86.78;98435.13;4955248;28;20471;-62
2021/12/30 04:07:07;;;;;;;24.92;16.85;;;;;;;4.07;86.28;98490.53;4944583;28;20479;-62
2021/12/30 04:09:32;;;;;;;24.02;17.35;;;;;;;3.81;86.89;98438.31;4953512;28;20410;-62
2021/12/30 04:11:58;;;;;;;23.88;16.50;;;;;;;3.56;87.34;98439.16;4960837;28;20054;-61
2021/12/30 04:14:26;;;;;;;21.27;15.23;;;;;;;4.05;86.85;98505.22;4925959;28;20042;-62
2021/12/30 04:16:52;;;;;;;20.90;14.98;;;;;;;3.88;86.76;98496.13;4957703;28;20034;-61
2021/12/30 04:19:18;;;;;;;21.33;15.40;;;;;;;3.97;86.30;98500.63;4960422;28;20209;-62
2021/12/30 04:21:44;;;;;;;22.00;15.32;;;;;;;3.92;87.18;98507.03;4950981;28;20285;-61
2021/12/30 04:24:09;;;;;;;22.27;15.50;;;;;;;3.96;86.49;98508.44;4950699;28;20714;-62
2021/12/30 04:26:35;;;;;;;20.63;14.70;;;;;;;4.05;86.79;98505.22;4949391;28;20111;-62
2021/12/30 04:29:00;;;;;;;19.85;14.57;;;;;;;3.82;86.88;98488.84;4948977;28;20122;-62
2021/12/30 04:31:25;;;;;;;21.75;15.30;;;;;;;3.67;88.24;98513.84;4972393;28;20057;-62
2021/12/30 04:33:51;;;;;;;21.73;15.52;;;;;;;3.69;87.84;98522.28;4959845;28;20035;-62
2021/12/30 04:36:16;;;;;;;19.73;13.63;;;;;;;3.91;87.34;98529.34;4961792;28;20019;-61
2021/12/30 04:38:42;;;;;;;21.42;14.48;;;;;;;3.87;87.10;98533.06;4959497;28;20112;-62
2021/12/30 04:41:08;;;;;;;18.63;14.00;;;;;;;3.97;86.46;98539.22;4965897;28;20165;-62
2021/12/30 04:43:33;;;;;;;18.83;13.73;;;;;;;4.00;86.54;98541.59;4941516;28;20063;-62
2021/12/30 04:46:01;;;;;;;22.20;14.65;;;;;;;3.82;87.13;98535.94;4945433;28;20025;-62
2021/12/30 04:48:27;;;;;;;19.83;13.98;;;;;;;3.91;87.86;98549.94;4953538;28;20114;-62
2021/12/30 04:50:53;;;;;;;19.00;13.88;;;;;;;3.95;87.19;98546.22;4946050;28;20114;-61
2021/12/30 04:53:19;;;;;;;20.65;14.60;;;;;;;3.77;87.86;98542.31;4942007;28;20027;-62
2021/12/30 04:55:45;;;;;;;19.48;15.02;;;;;;;3.82;88.38;98540.28;4968322;28;20214;-62
2021/12/30 04:58:12;;;;;;;23.05;14.75;;;;;;;3.83;88.15;98547.88;4978221;28;20302;-61
2021/12/30 05:00:38;;;;;;;18.98;14.68;;;;;;;3.78;88.94;98547.38;4958847;28;20057;-61
2021/12/30 05:03:09;;;;;;;21.20;15.32;;;;;;;3.82;89.22;98553.94;4949332;28;20039;-62
2021/12/30 05:05:46;;;;;;;20.27;14.82;;;;;;;3.91;89.17;98552.50;4969614;28;20058;-62
2021/12/30 05:08:15;;;;;;;20.38;14.30;;;;;;;4.03;88.30;98554.25;4968898;28;20487;-62
2021/12/30 05:10:41;;;;;;;21.47;14.63;;;;;;;3.75;88.53;98557.03;4960530;28;20035;-61
2021/12/30 05:13:07;;;;;;;21.48;15.15;;;;;;;3.78;89.80;98565.38;4961166;28;20692;-62
2021/12/30 05:15:34;;;;;;;20.35;15.27;;;;;;;3.76;89.60;98549.22;4955897;28;20027;-61
2021/12/30 05:18:00;;;;;;;22.00;14.57;;;;;;;3.87;90.29;98557.94;4871759;28;20758;-62
2021/12/30 05:20:25;;;;;;;19.90;13.70;;;;;;;3.85;89.24;98558.06;4960340;28;20039;-62
2021/12/30 05:22:51;;;;;;;19.27;13.73;;;;;;;3.92;89.18;98561.03;4957593;28;20066;-62
2021/12/30 05:25:18;;;;;;;19.25;14.00;;;;;;;4.04;88.13;98570.50;4975572;28;20118;-61
2021/12/30 05:27:44;;;;;;;18.58;12.77;;;;;;;4.08;87.58;98578.84;4978557;28;20043;-61
2021/12/30 05:30:11;;;;;;;20.30;13.52;;;;;;;4.13;86.83;98581.94;4956160;28;20034;-62
2021/12/30 05:32:37;;;;;;;20.30;14.48;;;;;;;4.09;87.18;98583.03;4958018;28;20138;-61
2021/12/30 05:35:04;;;;;;;19.92;14.18;;;;;;;4.00;87.39;98594.81;4956105;28;20448;-62
2021/12/30 05:37:29;;;;;;;20.05;14.15;;;;;;;4.06;87.95;98591.00;4967087;28;20031;-61
2021/12/30 05:39:54;;;;;;;18.65;13.70;;;;;;;3.88;87.75;98588.72;4958340;28;20027;-61
2021/12/30 05:42:22;;;;;;;20.48;13.85;;;;;;;3.91;87.91;98575.66;4956230;28;20043;-61
2021/12/30 05:44:50;;;;;;;21.02;14.32;;;;;;;3.54;88.80;98544.69;4960511;28;20486;-61
2021/12/30 05:47:16;;;;;;;21.42;15.23;;;;;;;3.68;92.77;98600.34;4940939;28;20034;-61
2021/12/30 05:49:41;;;;;;;18.40;14.07;;;;;;;3.89;93.32;98599.81;4955602;28;20435;-62
2021/12/30 05:52:06;;;;;;;19.10;13.90;;;;;;;3.83;92.73;98595.91;4960422;28;20101;-61
2021/12/30 05:54:32;;;;;;;20.30;14.25;;;;;;;3.96;92.71;98598.50;4960837;28;20049;-62
2021/12/30 05:56:57;;;;;;;21.88;14.57;;;;;;;3.97;92.47;98600.97;4957903;28;20038;-61
2021/12/30 05:59:23;;;;;;;20.10;14.55;;;;;;;4.08;91.24;98605.38;4961901;28;20157;-61
2021/12/30 06:01:48;;;;;;;19.35;13.70;;;;;;;3.59;91.21;98529.75;4953046;28;20062;-61
2021/12/30 06:04:15;;;;;;;21.58;14.20;;;;;;;4.22;90.47;98628.44;4833058;28;20070;-62
2021/12/30 06:06:40;;;;;;;19.77;14.13;;;;;;;3.98;90.58;98620.63;4934392;28;20034;-63
2021/12/30 06:09:06;;;;;;;19.50;14.55;;;;;;;4.01;93.22;98627.31;4977087;28;20038;-61
2021/12/30 06:11:31;;;;;;;20.55;14.52;;;;;;;4.08;92.67;98631.13;4953321;28;20239;-62
2021/12/30 06:13:56;;;;;;;20.30;14.77;;;;;;;4.04;94.15;98617.63;4956975;28;20027;-61
2021/12/30 06:16:23;;;;;;;19.35;14.10;;;;;;;4.02;93.92;98580.91;4972028;28;20042;-62
2021/12/30 06:18:48;;;;;;;20.90;14.43;;;;;;;4.19;92.59;98610.63;4959147;28;20039;-63
2021/12/30 06:21:14;;;;;;;20.45;13.95;;;;;;;4.00;91.91;98581.94;4923087;28;20031;-61
2021/12/30 06:23:39;;;;;;;22.02;14.45;;;;;;;4.32;91.94;98633.78;4955922;28;20039;-61
2021/12/30 06:26:04;;;;;;;22.08;14.68;;;;;;;3.96;91.92;98598.50;4953980;28;20035;-62
2021/12/30 06:28:30;;;;;;;19.73;14.15;;;;;;;4.19;91.83;98649.22;4955734;28;20037;-61
2021/12/30 06:30:55;;;;;;;21.55;14.55;;;;;;;3.53;91.62;98529.38;4950783;28;20085;-61
2021/12/30 06:33:21;;;;;;;19.70;13.80;;;;;;;4.32;91.08;98663.84;4952167;28;20122;-62
2021/12/30 06:35:46;;;;;;;19.65;14.65;;;;;;;3.91;92.02;98616.81;4950735;28;20026;-62
2021/12/30 06:38:11;;;;;;;19.92;15.02;;;;;;;4.18;91.60;98660.47;4965632;28;20103;-62
2021/12/30 06:40:37;;;;;;;24.55;16.67;;;;;;;4.23;92.04;98662.72;4968681;28;20042;-61
2021/12/30 06:43:02;;;;;;;24.38;17.35;;;;;;;4.30;91.72;98679.41;4955213;28;20117;-62
2021/12/30 06:45:28;;;;;;;26.05;18.45;;;;;;;4.02;91.85;98670.94;4971887;28;20038;-61
2021/12/30 06:47:53;;;;;;;26.48;18.00;;;;;;;3.68;90.80;98626.06;4954254;28;20470;-62
2021/12/30 06:50:22;;;;;;;24.00;16.27;;;;;;;4.00;89.68;98688.25;4936832;28;20086;-62
2021/12/30 06:52:48;;;;;;;22.85;15.65;;;;;;;4.09;89.76;98684.25;4934536;28;20070;-62
2021/12/30 06:55:14;;;;;;;20.48;15.27;;;;;;;3.66;89.48;98646.72;4958604;28;20117;-64
2021/12/30 06:57:40;;;;;;;20.50;14.80;;;;;;;4.12;88.86;98702.03;4958874;28;20117;-62
2021/12/30 07:00:07;;;;;;;19.00;13.27;;;;;;;4.09;88.91;98699.69;4969972;28;20092;-61
2021/12/30 07:02:34;;;;;;;22.35;14.93;;;;;;;4.12;88.34;98701.22;4943582;28;20027;-61
2021/12/30 07:04:59;;;;;;;19.17;14.88;;;;;;;3.97;89.11;98698.72;4950898;28;20031;-61
2021/12/30 07:07:25;;;;;;;21.17;13.73;;;;;;;3.85;89.34;98702.94;4964863;28;20093;-62
2021/12/30 07:09:51;;;;;;;18.10;13.25;;;;;;;3.88;89.96;98701.09;4950321;28;20062;-63
2021/12/30 07:12:17;;;;;;;18.70;13.35;;;;;;;3.47;90.11;98654.81;4945437;28;20065;-61
2021/12/30 07:14:43;;;;;;;16.52;12.57;;;;;;;3.66;91.20;98721.28;4958611;28;20054;-62
2021/12/30 07:17:09;;;;;;;18.77;13.50;;;;;;;3.80;91.65;98724.75;4948060;28;20081;-62
2021/12/30 07:19:35;;;;;;;20.95;13.55;;;;;;;3.85;92.54;98717.53;4964045;28;20501;-62
2021/12/30 07:22:00;;;;;;;20.50;14.63;;;;;;;3.70;92.14;98731.41;4950116;28;20520;-61
2021/12/30 07:24:26;;;;;;;18.33;14.63;;;;;;;3.88;91.68;98731.97;4887385;28;20540;-62
2021/12/30 07:26:52;;;;;;;19.98;14.07;;;;;;;3.87;91.35;98736.28;4955182;28;20441;-61
2021/12/30 07:29:18;;;;;;;19.83;14.02;;;;;;;3.94;90.28;98734.13;4977518;28;20580;-62
2021/12/30 07:31:43;;;;;;;19.20;13.40;;;;;;;3.98;89.70;98756.16;4941386;28;20591;-61
2021/12/30 07:34:08;;;;;;;23.10;14.85;;;;;;;3.68;89.76;98708.34;4967394;28;20035;-61
2021/12/30 07:36:34;;;;;;;19.52;14.82;;;;;;;3.94;89.83;98762.44;4956917;28;20437;-61
2021/12/30 07:39:00;;;;;;;23.17;15.35;;;;;;;3.91;89.45;98760.06;4961325;28;20493;-62
2021/12/30 07:41:25;;;;;;;23.88;16.65;;;;;;;3.88;89.45;98770.56;4970731;28;20050;-61
2021/12/30 07:43:50;;;;;;;21.80;16.35;;;;;;;3.64;90.29;98784.03;4958742;28;20474;-61
2021/12/30 07:46:16;;;;;;;22.20;17.38;;;;;;;3.47;91.59;98775.66;4942112;28;20054;-62
2021/12/30 07:48:41;;;;;;;24.83;16.70;;;;;;;3.77;91.54;98774.63;4961352;28;20063;-62
2021/12/30 07:51:07;;;;;;;21.90;16.17;;;;;;;3.84;91.09;98785.34;4961052;28;20490;-61
2021/12/30 07:53:33;;;;;;;19.20;14.48;;;;;;;3.81;90.66;98790.69;4945337;28;20044;-63
2021/12/30 07:56:01;;;;;;;19.90;14.35;;;;;;;3.68;90.68;98761.53;4956448;28;20554;-62
2021/12/30 07:58:27;;;;;;;20.50;15.73;;;;;;;3.90;90.19;98807.28;4979394;28;20035;-62
2021/12/30 08:00:52;;;;;;;22.10;15.90;;;;;;;3.84;90.39;98796.47;4952044;28;20105;-61
2021/12/30 08:03:18;;;;;;;22.63;15.50;;;;;;;3.93;90.28;98810.50;4955811;28;20767;-61
2021/12/30 08:05:45;;;;;;;23.90;15.73;;;;;;;3.92;90.59;98813.97;4955709;28;20030;-62
2021/12/30 08:08:11;;;;;;;22.42;15.35;;;;;;;3.98;90.25;98815.34;4974502;28;20494;-62
2021/12/30 08:10:36;;;;;;;22.15;16.70;;;;;;;3.88;90.13;98812.53;4973850;28;20027;-62
2021/12/30 08:13:02;;;;;;;22.70;16.52;;;;;;;3.87;89.64;98817.75;4958030;28;20121;-62
2021/12/30 08:15:28;;;;;;;21.08;16.45;;;;;;;4.00;89.29;98834.91;4978138;28;20027;-61
2021/12/30 08:17:54;;;;;;;25.77;17.40;;;;;;;3.98;89.18;98823.03;4959635;28;20109;-61
2021/12/30 08:20:22;;;;;;;23.27;16.55;;;;;;;3.99;89.21;98819.56;4960918;28;20117;-61
2021/12/30 08:22:48;;;;;;;21.25;15.10;;;;;;;4.06;89.46;98820.81;4936766;28;20041;-61
2021/12/30 08:25:14;;;;;;;22.00;15.18;;;;;;;4.05;89.24;98829.47;4948486;28;20069;-61
2021/12/30 08:27:41;;;;;;;22.63;14.73;;;;;;;4.06;89.52;98835.44;4955819;28;20027;-61
2021/12/30 08:30:10;;;;;;;21.55;15.43;;;;;;;3.96;89.46;98830.03;4954758;28;20073;-62
2021/12/30 08:32:36;;;;;;;26.50;18.55;;;;;;;4.00;90.07;98840.06;4952584;28;20031;-61
2021/12/30 08:35:02;;;;;;;25.42;19.33;;;;;;;3.95;90.13;98841.28;4955824;28;20478;-61
2021/12/30 08:37:27;;;;;;;25.50;18.02;;;;;;;4.01;89.80;98854.56;4959340;28;20031;-62
2021/12/30 08:39:53;;;;;;;26.30;17.80;;;;;;;4.05;90.02;98857.75;4958153;28;20031;-63
2021/12/30 08:42:25;;;;;;;22.38;15.25;;;;;;;4.02;90.39;98861.38;4949876;28;20037;-62
2021/12/30 08:44:51;;;;;;;18.42;13.35;;;;;;;4.07;90.56;98860.25;4953579;28;21083;-62
2021/12/30 08:47:17;;;;;;;20.30;14.18;;;;;;;4.02;90.64;98860.56;4950567;28;20034;-62
2021/12/30 08:49:45;;;;;;;21.25;14.45;;;;;;;4.11;90.16;98865.13;4942570;28;20031;-62
2021/12/30 08:52:15;;;;;;;20.98;15.13;;;;;;;4.27;89.69;98854.66;4944250;28;20445;-62
2021/12/30 08:54:40;;;;;;;;;;;;;;;4.34;89.53;98855.91;4969516;28;20022;-61
2021/12/30 08:57:06;;;;;;;18.58;13.23;;;;;;;4.17;90.46;98849.28;4974518;28;19929;-62
2021/12/30 08:59:32;;;;;;;22.08;14.43;;;;;;;4.13;90.95;98863.25;4956418;28;20045;-62
2021/12/30 09:01:58;;;;;;;20.92;14.68;;;;;;;4.10;90.81;98863.44;4957394;28;20057;-62
2021/12/30 09:04:26;;;;;;;20.65;15.05;;;;;;;3.99;91.37;98869.28;4954964;28;20101;-62
2021/12/30 09:06:52;;;;;;;19.33;15.27;;;;;;;3.88;92.21;98837.44;4958710;28;20030;-62
2021/12/30 09:09:18;;;;;;;22.10;15.80;;;;;;;4.14;92.79;98889.81;4956537;28;20038;-62
2021/12/30 09:11:43;;;;;;;22.05;15.10;;;;;;;4.22;94.05;98885.03;4956544;28;20343;-62
2021/12/30 09:14:09;;;;;;;23.50;16.15;;;;;;;4.28;94.25;98873.50;4956238;28;20030;-62
2021/12/30 09:16:34;;;;;;;20.63;15.80;;;;;;;4.38;93.91;98880.53;4954740;28;20030;-62
2021/12/30 09:19:00;;;;;;;21.20;15.38;;;;;;;4.48;93.39;98888.50;4954723;28;20023;-61
2021/12/30 09:21:25;;;;;;;21.98;14.85;;;;;;;4.52;93.92;98878.81;4973398;28;20159;-61
2021/12/30 09:23:51;;;;;;;20.67;15.73;;;;;;;4.60;93.49;98897.19;4959208;28;20658;-61
2021/12/30 09:26:16;;;;;;;22.80;15.88;;;;;;;4.61;93.68;98903.97;4954473;28;20039;-62
2021/12/30 09:28:42;;;;;;;19.90;15.15;;;;;;;4.67;94.07;98892.44;4955847;28;20045;-61
2021/12/30 09:31:08;;;;;;;20.63;15.50;;;;;;;4.73;93.37;98903.19;4971688;28;20038;-62
2021/12/30 09:33:33;;;;;;;20.65;15.35;;;;;;;4.70;93.39;98895.63;4946227;28;20057;-62
2021/12/30 09:36:02;;;;;;;20.63;15.60;;;;;;;4.72;93.62;98914.41;4952582;28;20308;-62
2021/12/30 09:38:27;;;;;;;20.38;15.50;;;;;;;4.81;94.34;98920.69;4952166;28;20673;-61
2021/12/30 09:40:53;;;;;;;22.38;15.07;;;;;;;4.57;93.28;98858.75;4947772;28;20041;-62
2021/12/30 09:43:18;;;;;;;22.00;15.23;;;;;;;4.93;93.35;98909.59;4957212;28;20564;-63
2021/12/30 09:45:44;;;;;;;21.55;15.80;;;;;;;4.80;93.44;98903.56;4953948;28;20031;-62
2021/12/30 09:48:12;;;;;;;20.63;15.65;;;;;;;4.84;94.06;98927.38;4970677;28;20149;-61
2021/12/30 09:50:41;;;;;;;23.58;15.88;;;;;;;4.85;94.89;98922.16;4938296;28;20426;-62
2021/12/30 09:53:08;;;;;;;21.83;16.15;;;;;;;4.67;94.94;98888.09;4955250;28;20214;-62
2021/12/30 09:55:34;;;;;;;23.20;15.85;;;;;;;4.98;94.58;98933.31;4938549;28;20074;-62
2021/12/30 09:58:00;;;;;;;24.67;16.25;;;;;;;4.93;95.67;98927.63;4950659;28;20030;-61
2021/12/30 10:00:27;;;;;;;22.77;15.98;;;;;;;5.04;95.91;98937.25;4934013;28;20035;-62
2021/12/30 10:02:53;;;;;;;24.63;16.55;;;;;;;4.80;95.83;98894.13;4952490;28;20509;-62
2021/12/30 10:05:21;;;;;;;21.92;16.15;;;;;;;5.08;96.16;98925.78;4970910;28;20296;-61
2021/12/30 10:07:46;;;;;;;21.88;16.52;;;;;;;5.17;95.86;98926.94;4946354;28;20030;-61
2021/12/30 10:10:32;;;;;;;23.23;16.90;;;;;;;4.95;95.74;98876.00;4939874;28;20026;-62
2021/12/30 10:16:19;;;;;;;20.85;15.90;;;;;;;5.24;95.36;98927.31;4947153;28;20624;-62
2021/12/30 10:18:48;;;;;;;22.83;16.60;;;;;;;5.39;95.04;98939.19;4953642;28;20066;-61
2021/12/30 10:21:16;;;;;;;20.60;15.05;;;;;;;5.47;95.82;98926.59;4952689;28;20357;-60
2021/12/30 10:24:03;;;;;;;22.40;15.95;;;;;;;5.63;94.10;98918.66;4954054;28;20027;-61
2021/12/30 10:26:29;;;;;;;21.20;14.73;;;;;;;5.63;94.05;98920.41;4895829;28;20046;-60
2021/12/30 10:28:56;;;;;;;19.00;15.18;;;;;;;5.15;94.57;98833.41;4946286;28;20049;-61
2021/12/30 10:31:28;;;;;;;19.70;14.55;;;;;;;5.78;93.95;98919.34;4954361;28;20465;-62
2021/12/30 10:33:59;;;;;;;21.25;15.45;;;;;;;5.84;94.49;98924.09;4947255;28;20122;-61
2021/12/30 10:36:33;;;;;;;19.30;15.25;;;;;;;5.89;94.21;98921.97;4949231;28;20059;-61
2021/12/30 10:39:21;;;;;;;19.27;14.68;;;;;;;6.01;94.14;98917.75;4952502;28;20022;-61
2021/12/30 10:41:49;;;;;;;19.58;15.07;;;;;;;6.11;93.75;98925.66;4952922;28;20503;-60
2021/12/30 10:44:15;;;;;;;19.83;15.73;;;;;;;6.18;94.06;98933.81;4938831;28;20084;-62
2021/12/30 10:46:41;;;;;;;20.77;15.80;;;;;;;6.19;94.17;98943.19;4968737;28;20764;-61
2021/12/30 10:49:09;;;;;;;23.00;15.98;;;;;;;6.20;94.25;98943.09;4951891;28;20047;-61
2021/12/30 10:51:38;;;;;;;22.67;16.20;;;;;;;6.19;94.61;98943.19;4956129;28;20038;-63
2021/12/30 10:54:13;;;;;;;20.38;15.60;;;;;;;6.15;94.18;98940.84;4956879;28;20057;-61
2021/12/30 10:56:41;;;;;;;22.08;17.15;;;;;;;5.97;92.81;98898.28;4973508;28;20046;-60
2021/12/30 10:59:10;;;;;;;19.50;15.77;;;;;;;6.28;93.18;98938.22;4954268;28;20637;-61
2021/12/30 11:01:41;;;;;;;21.50;16.45;;;;;;;6.11;92.75;98890.34;4955067;28;20601;-60
2021/12/30 11:04:07;;;;;;;23.55;16.38;;;;;;;6.49;92.05;98935.84;4951125;28;20561;-60
2021/12/30 11:06:33;;;;;;;18.67;14.73;;;;;;;6.54;91.98;98932.94;4962376;28;20046;-60
2021/12/30 11:09:08;;;;;;;21.00;16.35;;;;;;;6.59;91.85;98937.75;4973097;28;20026;-61
2021/12/30 11:11:34;;;;;;;22.67;16.92;;;;;;;6.78;91.12;98934.69;4965432;28;20031;-62
2021/12/30 11:14:21;;;;;;;21.40;15.85;;;;;;;6.82;90.50;98934.31;4940521;28;20038;-61
2021/12/30 11:16:54;;;;;;;18.52;13.73;;;;;;;6.87;89.75;98928.81;4960028;28;20482;-61
2021/12/30 11:19:23;;;;;;;17.38;11.80;;;;;;;6.91;89.65;98930.25;4970549;28;20070;-61
2021/12/30 11:21:51;;;;;;;15.38;11.15;;;;;;;7.10;87.08;98940.88;4975587;28;20085;-60
2021/12/30 11:24:18;;;;;;;17.55;12.77;;;;;;;7.37;87.87;98931.13;4973526;28;20045;-61
2021/12/30 11:26:43;;;;;;;17.25;13.18;;;;;;;7.23;86.75;98901.97;4957455;28;20457;-62
2021/12/30 11:29:09;;;;;;;17.52;13.48;;;;;;;7.18;87.11;98882.59;4952837;28;20367;-61